Elwood, IN

4:47 PM EDT on September 21, 2014 (GMT -0400)
Marion Municipal | Change Station
CLOSE
Current Station
Airport
Location: Marion,
Elevation: 856 ft
Nearby Weather Stations

Elev 856 ft 40.49 °N, 85.68 °W | Updated 12 minutes ago

Overcast
Overcast
63 °F
Feels Like 63 °F
N
18
Wind Variable Wind from WNW
Gusts 23 mph

Today
High -- | Low -- °F
--% Chance of Precip.
Yesterday
High -- | Low -- °F
Precip. -- in
7:29 AM 7:42 PM
Waning Crescent, 5% visible
Pressure 29.93 in
Visibility 10.0 miles
Clouds Scattered Clouds 3600 ft
Scattered Clouds 4300 ft
Mostly Cloudy 6500 ft
Dew Point 49 °F
Humidity 59%
Rainfall 1.29 in
Snow Depth Not available.
UV 2 out of 12
Pollen 5.40 out of 12
Ozone Good
PM2.5 Good
Flu Activity Not available.
METAR KMZZ 212035Z AUTO 30016G20KT 10SM SCT036 SCT043 BKN065 17/09 A2993 RMK AO2 T01740094

More Conditions Fewer Conditions

Pressure 29.93 in
Visibility 10.0 miles
Clouds Scattered Clouds 3600 ft
Scattered Clouds 4300 ft
Mostly Cloudy 6500 ft
Dew Point 49 °F
Humidity 59%
Rainfall 1.29 in
Snow Depth Not available.
UV 2 out of 12
Pollen 5.40 out of 12
Ozone Good
PM2.5 Good
Flu Activity Not available.
METAR KMZZ 212035Z AUTO 30016G20KT 10SM SCT036 SCT043 BKN065 17/09 A2993 RMK AO2 T01740094

More Conditions Fewer Conditions

10-Day Weather Forecast

Almanac

Astronomy

Sep. 21, 2014 Rise Set
Actual Time 7:29 AM EDT 7:42 PM EDT
Civil Twilight 7:02 AM EDT 8:09 PM EDT
Nautical Twilight 6:30 AM EDT 8:41 PM EDT
Astronomical Twilight 5:58 AM EDT 9:13 PM EDT
Moon 5:02 AM EDT 6:18 PM EDT
Length of Visible Light 13h 06m
Length of Day
12h 12m
Tomorrow will be 2m 38s shorter.
Waning Crescent, 5% of the Moon is Illuminated
Today
Waning Crescent
Sep 24
New
Oct 1
First Quarter
Oct 8
Full
Oct 15
Last Quarter

Today's Extremes

State Highs State Lows

Community

WunderPhotos

Upload Photos

1,755,250 photos uploaded!

Nearby

Air Quality

  Air Quality AQ Index Pollutant
Yesterday Moderate
PM2.5
Yesterday Good
OZONE
Current Good
OZONE
Current Good
PM2.5
Sunday Good
PM2.5
Sunday Good
OZONE
Monday Good
PM2.5
Monday Good
OZONE

Snow Depth

Station Depth Elevation
No new snow has been reported.

Earthquake Activity

City Distance Mag. Time & Date
No recent earthquake activity has been reported nearby.
Minimum magnitude displayed is 2.5.

Coastal Water Temperatures

Place Temperature
No Stations Reporting

Nearby Weather Stations